Terminal Aerodrome Forecast
Issued by NWS

Home | Current Version | Previous Version | Text Only | Print | Product List | Glossary On
Versions: 1 2 3 4 5 6 7 8 9 10 11 12 13 14 15 16 17 18 19 20 21 22 23 24
000
FTUS43 KIND 261900 AAA
TAFLAF
TAF AMD
KLAF 261951Z 2620/2718 27005KT P6SM OVC020
     FM262200 15003KT P6SM VCSH BKN020 BKN040 OVC100
     FM270200 07004KT 5SM BR VCSH OVC015
     FM271400 05008KT P6SM SCT025 SCT050 BKN150=

USA.gov is the U.S. government's official web portal to all federal, state and local government web resources and services.